createdAt,value
2022-11-13T00:00:19.052Z,31.25
2022-11-13T00:05:39.444Z,21.40
2022-11-13T00:11:01.971Z,17.25
2022-11-13T00:16:22.523Z,31.60
2022-11-13T00:21:43.010Z,25.30
2022-11-13T00:27:03.547Z,34.50
2022-11-13T00:32:24.012Z,16.65
2022-11-13T00:37:44.480Z,18.60
2022-11-13T00:43:05.194Z,17.45
2022-11-13T00:48:26.293Z,17.30
2022-11-13T00:53:47.240Z,17.60
2022-11-13T00:59:07.759Z,16.03
2022-11-13T01:04:29.305Z,15.40
2022-11-13T01:09:50.804Z,15.50
2022-11-13T01:15:11.048Z,14.75
2022-11-13T01:20:32.979Z,18.90
2022-11-13T01:25:53.447Z,12.35
2022-11-13T01:31:26.236Z,12.40
2022-11-13T01:36:46.996Z,13.75
2022-11-13T01:42:07.452Z,16.75
2022-11-13T01:47:29.062Z,14.40
2022-11-13T01:52:49.266Z,26.40
2022-11-13T01:58:11.061Z,16.70
2022-11-13T02:03:31.416Z,12.40
2022-11-13T02:08:52.217Z,12.40
2022-11-13T02:14:14.752Z,10.85
2022-11-13T02:19:42.760Z,16.35
2022-11-13T02:25:04.822Z,12.40
2022-11-13T02:30:31.227Z,16.17
2022-11-13T02:35:51.965Z,12.47
2022-11-13T02:41:12.316Z,12.03
2022-11-13T02:46:33.529Z,12.53
2022-11-13T02:51:53.956Z,11.15
2022-11-13T02:57:14.325Z,11.13
2022-11-13T03:02:35.080Z,8.57
2022-11-13T03:07:55.541Z,10.40
2022-11-13T03:13:16.061Z,10.80
2022-11-13T03:18:36.582Z,10.23
2022-11-13T03:23:57.226Z,10.25
2022-11-13T03:29:17.703Z,7.77
2022-11-13T03:34:39.069Z,11.63
2022-11-13T03:39:59.474Z,12.07
2022-11-13T03:45:19.798Z,7.20
2022-11-13T03:50:45.676Z,6.35
2022-11-13T03:56:06.400Z,10.43
2022-11-13T04:01:26.833Z,15.40
2022-11-13T04:06:47.231Z,9.53
2022-11-13T04:12:07.652Z,7.87
2022-11-13T04:17:27.951Z,9.77
2022-11-13T04:22:48.424Z,8.85
2022-11-13T04:28:09.640Z,7.50
2022-11-13T04:33:30.224Z,7.05
2022-11-13T04:38:50.485Z,7.07
2022-11-13T04:44:10.813Z,31.70
2022-11-13T04:49:31.364Z,10.33
2022-11-13T04:54:51.326Z,24.20
2022-11-13T05:00:12.483Z,24.73
2022-11-13T05:05:32.601Z,13.57
2022-11-13T05:10:52.911Z,8.63
2022-11-13T05:16:14.822Z,7.47
2022-11-13T05:21:36.430Z,21.15
2022-11-13T05:26:56.902Z,22.10
2022-11-13T05:32:17.246Z,10.10
2022-11-13T05:37:37.909Z,14.70
2022-11-13T05:42:58.449Z,15.40
2022-11-13T05:48:19.102Z,11.30
2022-11-13T05:53:40.870Z,9.03
2022-11-13T05:59:02.894Z,11.83
2022-11-13T06:04:23.007Z,8.77
2022-11-13T06:09:43.283Z,8.53
2022-11-13T06:15:04.002Z,9.70
2022-11-13T06:20:24.350Z,7.23
2022-11-13T06:25:45.101Z,10.00
2022-11-13T06:31:11.963Z,8.25
2022-11-13T06:36:34.770Z,18.70
2022-11-13T06:41:55.546Z,10.00
2022-11-13T06:47:16.171Z,10.30
2022-11-13T06:52:36.496Z,8.65
2022-11-13T06:57:57.435Z,8.87
2022-11-13T07:03:20.464Z,15.90
2022-11-13T07:08:42.525Z,8.02
2022-11-13T07:14:02.907Z,10.03
2022-11-13T07:19:23.657Z,8.47
2022-11-13T07:24:43.975Z,19.65
2022-11-13T07:30:04.845Z,9.80
2022-11-13T07:35:25.235Z,8.93
2022-11-13T07:40:45.613Z,10.70
2022-11-13T07:46:06.078Z,42.80
2022-11-13T07:51:26.454Z,10.05
2022-11-13T07:56:47.262Z,12.77
2022-11-13T08:02:13.778Z,10.17
2022-11-13T08:07:34.153Z,21.53
2022-11-13T08:13:03.476Z,12.75
2022-11-13T08:18:23.807Z,14.03
2022-11-13T08:23:44.056Z,15.50
2022-11-13T08:29:04.916Z,10.80
2022-11-13T08:34:25.005Z,12.77
2022-11-13T08:39:45.501Z,17.90
2022-11-13T08:45:06.644Z,13.60
2022-11-13T08:50:28.859Z,11.80
2022-11-13T08:55:48.928Z,10.70
2022-11-13T09:01:09.393Z,10.45
2022-11-13T09:06:29.883Z,15.70
2022-11-13T09:11:50.688Z,11.80
2022-11-13T09:17:11.125Z,10.65
2022-11-13T09:22:31.549Z,11.35
2022-11-13T09:27:53.941Z,9.80
2022-11-13T09:33:15.532Z,9.50
2022-11-13T09:38:35.760Z,10.75
2022-11-13T09:44:01.553Z,10.55
2022-11-13T09:49:30.062Z,11.90
2022-11-13T09:54:50.273Z,14.00
2022-11-13T10:01:03.227Z,9.45
2022-11-13T10:06:30.399Z,9.90
2022-11-13T10:12:03.148Z,9.45
2022-11-13T10:17:38.986Z,10.50
2022-11-13T10:23:17.048Z,8.10
2022-11-13T10:28:54.510Z,7.00
2022-11-13T10:34:16.204Z,9.40
2022-11-13T10:39:45.901Z,8.15
2022-11-13T10:45:17.915Z,7.10
2022-11-13T10:50:39.815Z,9.50
2022-11-13T10:56:00.626Z,7.27
2022-11-13T11:01:24.501Z,7.50
2022-11-13T11:12:30.945Z,9.57
2022-11-13T11:17:54.258Z,5.20
2022-11-13T11:23:33.099Z,8.10
2022-11-13T11:29:21.387Z,5.18
2022-11-13T11:34:53.728Z,7.20
2022-11-13T11:40:34.076Z,9.03
2022-11-13T11:45:54.471Z,11.45
2022-11-13T11:51:15.193Z,8.02
2022-11-13T11:56:40.356Z,12.37
2022-11-13T12:02:38.442Z,8.65
2022-11-13T12:08:35.542Z,11.88
2022-11-13T12:13:55.571Z,13.80
2022-11-13T12:19:18.702Z,10.93
2022-11-13T12:24:47.499Z,11.47
2022-11-13T12:30:16.721Z,16.15
2022-11-13T12:35:39.518Z,11.20
2022-11-13T12:41:42.324Z,9.18
2022-11-13T12:47:02.595Z,7.53
2022-11-13T12:52:24.440Z,8.32
2022-11-13T12:57:48.260Z,7.20
2022-11-13T13:03:44.525Z,6.50
2022-11-13T13:09:37.174Z,8.63
2022-11-13T13:15:06.841Z,4.85
2022-11-13T13:20:37.993Z,6.43
2022-11-13T13:26:14.791Z,7.30
2022-11-13T13:31:56.348Z,7.82
2022-11-13T13:37:38.108Z,5.35
2022-11-13T13:42:58.357Z,3.80
2022-11-13T13:48:23.979Z,2.90
2022-11-13T13:53:44.491Z,5.47
2022-11-13T13:59:05.301Z,4.78
2022-11-13T14:04:33.900Z,3.42
2022-11-13T14:10:07.127Z,4.07
2022-11-13T14:15:32.087Z,3.67
2022-11-13T14:20:56.037Z,5.07
2022-11-13T14:26:17.942Z,4.78
2022-11-13T14:31:38.657Z,4.30
2022-11-13T14:37:23.168Z,3.30
2022-11-13T14:48:26.140Z,7.30
2022-11-13T14:53:58.423Z,3.70
2022-11-13T14:59:27.077Z,6.35
2022-11-13T15:04:47.445Z,2.55
2022-11-13T15:10:14.683Z,4.37
2022-11-13T15:15:35.043Z,3.42
2022-11-13T15:20:55.480Z,4.35
2022-11-13T15:26:15.900Z,4.60
2022-11-13T15:31:40.247Z,3.75
2022-11-13T15:37:00.924Z,2.80
2022-11-13T15:42:29.735Z,3.43
2022-11-13T15:47:49.909Z,3.97
2022-11-13T15:53:14.074Z,4.13
2022-11-13T15:58:34.756Z,5.95
2022-11-13T16:03:58.004Z,4.35
2022-11-13T16:09:18.138Z,3.92
2022-11-13T16:14:39.987Z,5.30
2022-11-13T16:20:00.327Z,4.90
2022-11-13T16:25:22.011Z,3.90
2022-11-13T16:30:43.057Z,4.65
2022-11-13T16:36:05.104Z,3.50
2022-11-13T16:41:27.159Z,5.10
2022-11-13T16:46:49.531Z,4.10
2022-11-13T16:52:09.963Z,2.65
2022-11-13T16:57:30.667Z,4.85
2022-11-13T17:02:54.817Z,4.90
2022-11-13T17:08:15.155Z,6.20
2022-11-13T17:13:35.699Z,4.55
2022-11-13T17:18:56.582Z,5.70
2022-11-13T17:24:17.017Z,6.00
2022-11-13T17:29:38.584Z,4.23
2022-11-13T17:34:58.938Z,14.83
2022-11-13T17:40:19.918Z,6.73
2022-11-13T17:45:40.966Z,5.53
2022-11-13T17:51:05.373Z,3.57
2022-11-13T17:56:25.635Z,5.70
2022-11-13T18:01:46.040Z,2.93
2022-11-13T18:07:06.860Z,5.55
2022-11-13T18:12:27.837Z,5.15
2022-11-13T18:17:48.309Z,9.60
2022-11-13T18:23:08.765Z,5.80
2022-11-13T18:28:29.208Z,8.70
2022-11-13T18:33:49.727Z,6.95
2022-11-13T18:39:16.180Z,7.90
2022-11-13T18:44:37.620Z,3.85
2022-11-13T18:49:58.275Z,5.60
2022-11-13T18:55:18.538Z,3.10
2022-11-13T19:00:38.947Z,5.40
2022-11-13T19:05:59.843Z,6.35
2022-11-13T19:11:20.503Z,6.95
2022-11-13T19:16:41.055Z,4.90
2022-11-13T19:22:01.003Z,7.30
2022-11-13T19:27:21.476Z,15.65
2022-11-13T19:32:41.805Z,4.03
2022-11-13T19:38:02.574Z,5.60
2022-11-13T19:43:22.905Z,5.73
2022-11-13T19:48:45.102Z,12.17
2022-11-13T19:54:05.491Z,7.90
2022-11-13T19:59:26.218Z,7.67
2022-11-13T20:04:46.578Z,8.53
2022-11-13T20:10:07.415Z,9.10
2022-11-13T20:15:27.796Z,8.70
2022-11-13T20:20:54.266Z,13.97
2022-11-13T20:26:16.613Z,16.57
2022-11-13T20:31:36.724Z,21.60
2022-11-13T20:36:57.078Z,17.93
2022-11-13T20:42:17.629Z,19.03
2022-11-13T20:47:37.937Z,13.70
2022-11-13T20:52:58.378Z,17.43
2022-11-13T20:58:18.680Z,15.80
2022-11-13T21:03:41.655Z,12.90
2022-11-13T21:09:03.532Z,13.73
2022-11-13T21:14:23.921Z,11.50
2022-11-13T21:19:44.661Z,12.87
2022-11-13T21:25:05.475Z,20.67
2022-11-13T21:30:25.762Z,22.13
2022-11-13T21:35:46.187Z,22.03
2022-11-13T21:41:23.742Z,25.10
2022-11-13T21:46:45.617Z,18.20
2022-11-13T21:52:06.108Z,11.60
2022-11-13T21:57:27.128Z,11.40
2022-11-13T22:02:47.764Z,14.70
2022-11-13T22:08:08.532Z,14.53
2022-11-13T22:13:29.441Z,33.63
2022-11-13T22:18:55.192Z,23.07
2022-11-13T22:24:15.706Z,18.37
2022-11-13T22:29:35.924Z,46.97
2022-11-13T22:34:56.858Z,28.65
2022-11-13T22:40:17.790Z,17.25
2022-11-13T22:45:38.144Z,16.55
2022-11-13T22:51:07.655Z,17.00
2022-11-13T22:56:31.099Z,16.75
2022-11-13T23:07:11.638Z,23.75
2022-11-13T23:12:31.961Z,17.85
2022-11-13T23:17:52.259Z,20.03
2022-11-13T23:23:15.272Z,23.25
2022-11-13T23:28:36.360Z,28.58
2022-11-13T23:33:56.604Z,30.45
2022-11-13T23:39:16.964Z,27.47
2022-11-13T23:44:37.371Z,31.15
2022-11-13T23:49:57.685Z,28.80
2022-11-13T23:55:19.103Z,32.00
